YGOM weather

Goomalling Airport
Western Australia, Australia

Public forecast

Using degrees Celsius for public forecast. Weather courtesy of forecast.io.

METAR (pilot weather report)

Closest report is RAAF Base Pearce, 48.0 nm (88.8 km) WSW. Retrieved 2019/03/25 15:30 UTC (0 seconds ago):

YPEA 251530Z AUTO 10005KT 050V150 9999 // NCD 23/02 Q1018

TAF (pilot weather forecast)

Closest forecast is RAAF Base Pearce, 48.0 nm (88.8 km) WSW. Retrieved 2019/03/25 12:00 UTC (3 hours ago):

TAF YPEA 251002Z 2512/2606 09014KT CAVOK FM251600 08016G26KT CAVOK FM260100 05012KT CAVOK